Roanoke, VA (24011)

8:50 PM EDT on August 04, 2015 (GMT -0400)
Addison MS | | Change Station
CLOSE
Current Station
Personal Weather Station
Location: Roanoke, VA
Elevation: 1007 ft
Nearby Weather Stations

Elev 1007 ft 37.28 °N, 79.95 °W | Updated 5 seconds ago

Mostly Cloudy
Mostly Cloudy
84.4 °F
Feels Like 87 °F
N
2.0
Wind Variable Wind from ESE
Gusts 2.0 mph

Today
High -- | Low -- °F
--% Chance of Precip.
Yesterday
High -- | Low -- °F
Precip. -- in
6:26 AM 8:24 PM
Waning Gibbous, 73% visible
Pressure 29.95 in
Visibility 10.0 miles
Clouds Few 6000 ft
Mostly Cloudy 20000 ft
Heat Index 87 °F
Dew Point 67 °F
Humidity 56%
Rainfall 0.00 in
Snow Depth Not available.
UV 11.1 out of 12
Pollen 6.90 out of 12
Air Quality Not available.
Flu Activity Not available.
METAR KROA 042354Z 27007KT 10SM FEW060 BKN200 29/18 A2999 RMK AO2 SLP142 60000 T02940178 10339 20294 53005

More Conditions Fewer Conditions

Pressure 29.95 in
Visibility 10.0 miles
Clouds Few 6000 ft
Mostly Cloudy 20000 ft
Heat Index 87 °F
Dew Point 67 °F
Humidity 56%
Rainfall 0.00 in
Snow Depth Not available.
UV 11.1 out of 12
Pollen 6.90 out of 12
Air Quality Not available.
Flu Activity Not available.
METAR KROA 042354Z 27007KT 10SM FEW060 BKN200 29/18 A2999 RMK AO2 SLP142 60000 T02940178 10339 20294 53005

More Conditions Fewer Conditions

10-Day Weather Forecast

×

Almanac

Astronomy

Aug. 04, 2015 Rise Set
Actual Time
Civil Twilight
Nautical Twilight
Astronomical Twilight
Moon
Length of Visible Light
Length of Day
Tomorrow will be .
, % of the Moon is Illuminated

Today's Extremes

State Highs State Lows

Community

WunderPhotos

Upload Photos

1,844,033 photos uploaded!

WunderBlogs® & News

Nearby

Air Quality

  Air Quality AQ Index Pollutant
Not available.

Snow Depth

Station Depth Elevation

Earthquake Activity

City Distance Mag. Time & Date
Minimum magnitude displayed is 2.5.

Coastal Water Temperatures

Place Temperature

Stations

Nearby Weather Stations

Station Location Temp. Windchill Dew Point Humidity Wind Precip. Elev Updated Type